DCA weather

Ronald Reagan Washington National Airport
Washington, District of Columbia, United States

Public forecast

Using degrees Fahrenheit for public forecast. Weather courtesy of forecast.io.

METAR (pilot weather report)

Retrieved 2018/10/17 03:52 UTC (1 hour ago):

KDCA 170352Z 22004KT 10SM OVC034 14/09 A3011 RMK AO2 SLP197 T01390089

TAF (pilot weather forecast)

Forecast is more than 12 hours old.

Retrieved 2018/10/16 00:40 UTC (1 day ago):

TAF KDCA 162338Z 1700/1806 21006KT P6SM OVC200 FM170300 21005KT P6SM BKN035 OVC130 FM170800 29005KT P6SM BKN200 FM171300 28010KT P6SM SCT200 FM171700 28015G25KT P6SM FEW250 FM180400 32012KT P6SM FEW200